Kylarrick House Airstrip

GB-0867 · Scotland, United Kingdom

METAR history GB-0867 · Kylarrick House Airstrip

Below you see METARs of the last few days. Select a year to browse through older METARs, from the year 2007 onwards.

November 30, 2022

Time Code Weather Temp. Visibility Ceiling Wind METAR/SPECI
00:50
V
-4 °C 10 km+ - 210° 210° 2 kt METAR EGPE 300050Z AUTO 21002KT 9999 NCD M04/M04 Q1021
00:20
V
-4 °C 10 km+ - 200° 200° 1 kt METAR EGPE 300020Z AUTO 20001KT 9999 NCD M04/M05 Q1021

November 29, 2022

Time Code Weather Temp. Visibility Ceiling Wind METAR/SPECI
23:50
V
-3 °C 10 km+ - 150° 150° 1 kt METAR EGPE 292350Z AUTO 15001KT 9999 NCD M03/M04 Q1020
23:20
V
-4 °C 10 km+ - Var 000° 0 kt METAR EGPE 292320Z AUTO 00000KT 9999 NCD M04/M04 Q1020
22:50
V
-3 °C 10 km+ - Var 000° 0 kt METAR EGPE 292250Z AUTO 00000KT 9999 NCD M03/M04 Q1020
22:20
V
-3 °C 10 km+ - Var 000° 0 kt METAR EGPE 292220Z AUTO 00000KT 9999 NCD M03/M04 Q1020
21:50
V
-4 °C 10 km+ - Var 000° 0 kt METAR EGPE 292150Z AUTO 00000KT 9999 NCD M04/M04 Q1020
21:20
V
-3 °C 10 km+ - 070° 070° 1 kt METAR EGPE 292120Z 07001KT 9999 MIFG NSC M03/M04 Q1020
20:50
V
-4 °C 10 km+ - Var 000° 0 kt METAR EGPE 292050Z 00000KT CAVOK M04/M04 Q1020
20:20
V
-3 °C 10 km+ - Var 000° 0 kt METAR EGPE 292020Z 00000KT CAVOK M03/M04 Q1020
19:50
V
-3 °C 10 km+ - Var 000° 0 kt METAR EGPE 291950Z 00000KT CAVOK M03/M04 Q1020
19:20
V
-2 °C 10 km+ - Var 000° 0 kt METAR EGPE 291920Z 00000KT CAVOK M02/M02 Q1020
18:50
V
-2 °C 10 km+ - Var 000° 0 kt METAR EGPE 291850Z 00000KT CAVOK M02/M03 Q1020
18:20
V
-1 °C 10 km+ - Var 000° 0 kt METAR EGPE 291820Z 00000KT CAVOK M01/M02 Q1019
17:50
V
-1 °C 10 km+ - Var 000° 0 kt METAR EGPE 291750Z 00000KT CAVOK M01/M01 Q1019
17:20
V
0 °C 10 km+ - Var 000° 0 kt METAR EGPE 291720Z 00000KT CAVOK M00/M01 Q1019
16:50
V
0 °C 10 km+ - Var 000° 0 kt METAR EGPE 291650Z 00000KT CAVOK M00/M01 Q1019
16:20
V
2 °C 10 km+ - 230° 230° 1 kt METAR EGPE 291620Z 23001KT CAVOK 02/01 Q1019
15:50
V
2 °C 10 km+ - 170° 170° 2 kt METAR EGPE 291550Z 17002KT 9999 FEW040 02/01 Q1019
15:20
V
2 °C 10 km+ - 220° 220° 2 kt METAR EGPE 291520Z 22002KT CAVOK 02/01 Q1018
14:50
V
3 °C 10 km+ - 200° 200° 1 kt METAR EGPE 291450Z 20001KT CAVOK 03/02 Q1018
14:20
V
5 °C 10 km+ - 200° 200° 2 kt METAR EGPE 291420Z 20002KT 9999 FEW010 05/04 Q1018
13:50
V
7 °C 10 km+ - 250° 250° 1 kt METAR EGPE 291350Z 25001KT 9999 FEW015 07/05 Q1018
13:20
V
8 °C 10 km+ - Var 000° 0 kt METAR EGPE 291320Z 00000KT 9999 FEW020 08/05 Q1018
12:50
V
7 °C 10 km+ - 210° 210° 1 kt METAR EGPE 291250Z 21001KT CAVOK 07/05 Q1018
12:20
V
6 °C 10 km+ - Var 000° 0 kt METAR EGPE 291220Z 00000KT CAVOK 06/05 Q1018
11:50
V
5 °C 10 km+ - Var 000° 0 kt METAR EGPE 291150Z 00000KT CAVOK 05/04 Q1018
11:20
V
4 °C 10 km+ - Var 000° 0 kt METAR EGPE 291120Z 00000KT CAVOK 04/03 Q1018
10:50
V
2 °C 10 km+ - 130° 130° 1 kt METAR EGPE 291050Z 13001KT CAVOK 02/02 Q1018
10:20
V
1 °C 10 km+ - Var 000° 0 kt METAR EGPE 291020Z 00000KT 9999 FEW028 01/01 Q1018
09:50
V
1 °C 10 km+ - Var 000° 0 kt METAR EGPE 290950Z 00000KT 9999 FEW028 01/01 Q1018
09:20
V
0 °C 10 km+ - Var 000° 0 kt METAR EGPE 290920Z 00000KT 9999 FEW025 00/M00 Q1018
08:50
V
0 °C 10 km+ - Var 000° 0 kt METAR EGPE 290850Z 00000KT 9999 FEW025 00/M00 Q1018
08:20
V
1 °C 10 km+ - Var 000° 0 kt METAR EGPE 290820Z 00000KT 9999 1600N MIFG FEW032 01/00 Q1018
07:50
V
0 °C 10 km+ - 210° 210° 2 kt METAR EGPE 290750Z 21002KT 9999 1600N MIFG FEW032 M00/M01 Q1017
07:20
V
-1 °C 10 km+ - 180° 180° 1 kt METAR EGPE 290720Z 18001KT 9999 1600N BR NSC M01/M01 Q1017
06:50
V
-2 °C 10 km+ - Var Var 1 kt METAR EGPE 290650Z VRB01KT 9999 1600NW BR NSC M02/M03 Q1017
06:20
V
-1 °C 10 km+ - Var 000° 0 kt METAR EGPE 290620Z 00000KT 9999 1600NW BR NSC M01/M02 Q1017
05:50
V
-2 °C 10 km+ - 200° 200° 1 kt METAR EGPE 290550Z 20001KT 9999 1600NW BR NSC M02/M03 Q1016
05:20
L
-1 °C 450 m - Var 000° 0 kt METAR EGPE 290520Z AUTO 00000KT 0450 FZFG FEW031/// M01/M02 Q1016
04:50
V
-1 °C 10 km+ - 200° 200° 1 kt METAR EGPE 290450Z AUTO 20001KT 9999 NCD M01/M01 Q1016
04:20
I
1 °C 3.1 km - 220° 220° 1 kt METAR EGPE 290420Z AUTO 22001KT 3100 BR NCD 01/01 Q1015
03:50
V
0 °C 10 km+ - Var 000° 0 kt METAR EGPE 290350Z 00000KT 9999 MIFG NSC 00/M00 Q1015
03:20
V
1 °C 10 km+ - 220° 220° 4 kt METAR EGPE 290320Z 22004KT 9999 MIFG NSC 01/00 Q1015
02:50
V
1 °C 10 km+ - 220° 220° 3 kt METAR EGPE 290250Z 22003KT 9999 MIFG NSC 01/01 Q1015
02:20
V
2 °C 10 km+ - Var Var 1 kt METAR EGPE 290220Z VRB01KT CAVOK 02/02 Q1015
01:50
V
2 °C 10 km+ - 260° 260° 5 kt METAR EGPE 290150Z AUTO 26005KT 9999 NCD 02/01 Q1014
01:20
V
3 °C 10 km+ 3,400 ft 220° 220° 4 kt METAR EGPE 290120Z AUTO 22004KT 9999 BKN034/// 03/02 Q1014
00:50
V
2 °C 10 km+ 3,600 ft 230° 230° 8 kt METAR EGPE 290050Z AUTO 23008KT 9999 BKN036/// 02/01 Q1014
00:20
V
2 °C 10 km+ - 220° 220° 2 kt METAR EGPE 290020Z AUTO 22002KT 9999 SCT038/// 02/01 Q1014

November 28, 2022

Time Code Weather Temp. Visibility Ceiling Wind METAR/SPECI
23:50
V
1 °C 10 km+ - 210° 210° 2 kt METAR EGPE 282350Z AUTO 21002KT 9999 NCD 01/00 Q1014
23:20
V
1 °C 10 km+ - 230° 230° 2 kt METAR EGPE 282320Z AUTO 23002KT 9999 NCD 01/00 Q1013
22:50
V
2 °C 10 km+ - Var 000° 0 kt METAR EGPE 282250Z AUTO 00000KT 9999 NCD 02/01 Q1013
22:20
V
2 °C 10 km+ - Var Var 2 kt METAR EGPE 282220Z AUTO VRB02KT 9999 NCD 02/01 Q1013
21:50
V
1 °C 10 km+ - 200° 200° 2 kt METAR EGPE 282150Z 20002KT CAVOK 01/00 Q1013
21:20
V
2 °C 10 km+ - 270° 270° 3 kt METAR EGPE 282120Z 27003KT CAVOK 02/00 Q1012
20:50
V
2 °C 10 km+ - 230° 230° 2 kt METAR EGPE 282050Z 23002KT CAVOK 02/01 Q1012
20:20
V
1 °C 10 km+ - 220° 220° 2 kt METAR EGPE 282020Z 22002KT CAVOK 01/00 Q1012
19:50
V
0 °C 10 km+ - Var 000° 0 kt METAR EGPE 281950Z 00000KT CAVOK 00/M01 Q1012
19:20
V
1 °C 10 km+ - Var 000° 0 kt METAR EGPE 281920Z 00000KT CAVOK 01/M00 Q1011
18:50
V
1 °C 10 km+ - 230° 230° 3 kt METAR EGPE 281850Z 23003KT 210V270 CAVOK 01/M01 Q1011
18:20
V
1 °C 10 km+ - 220° 220° 6 kt METAR EGPE 281820Z 22006KT 9999 FEW049 01/00 Q1011
17:50
V
1 °C 10 km+ - 220° 220° 3 kt METAR EGPE 281750Z 22003KT CAVOK 01/M00 Q1010
17:20
V
1 °C 10 km+ - Var Var 1 kt METAR EGPE 281720Z VRB01KT 9999 FEW045 01/M00 Q1010
16:50
V
2 °C 10 km+ - Var 000° 0 kt METAR EGPE 281650Z 00000KT 9999 FEW040 02/01 Q1010
16:20
V
1 °C 10 km+ - 190° 190° 2 kt METAR EGPE 281620Z 19002KT 9999 FEW040 01/00 Q1009
15:50
V
3 °C 10 km+ - 180° 180° 1 kt METAR EGPE 281550Z 18001KT 9999 FEW035 03/02 Q1009
15:20
V
5 °C 10 km+ - Var Var 1 kt METAR EGPE 281520Z VRB01KT CAVOK 05/03 Q1009
14:50
V
6 °C 10 km+ - 220° 220° 3 kt METAR EGPE 281450Z 22003KT CAVOK 06/04 Q1008
14:20
V
7 °C 10 km+ - 240° 240° 4 kt METAR EGPE 281420Z 24004KT CAVOK 07/04 Q1008
13:50
V
8 °C 10 km+ - 230° 230° 4 kt METAR EGPE 281350Z 23004KT CAVOK 08/05 Q1007
13:20
V
8 °C 10 km+ - 220° 220° 5 kt METAR EGPE 281320Z 22005KT CAVOK 08/05 Q1007
12:50
V
8 °C 10 km+ - 220° 220° 3 kt METAR EGPE 281250Z 22003KT 9999 FEW036 08/05 Q1007
12:20
V
8 °C 10 km+ - 230° 230° 4 kt METAR EGPE 281220Z 23004KT 9999 FEW036 08/05 Q1007
11:50
V
8 °C 10 km+ - 250° 250° 3 kt METAR EGPE 281150Z 25003KT 220V280 9999 FEW036 08/05 Q1006
11:20
V
7 °C 10 km+ - 270° 270° 5 kt METAR EGPE 281120Z 27005KT 9999 FEW036 07/04 Q1006
10:50
V
6 °C 10 km+ - 220° 220° 3 kt METAR EGPE 281050Z 22003KT 9999 FEW020CB 06/04 Q1006
10:20
V
6 °C 10 km+ - 190° 190° 2 kt METAR EGPE 281020Z 19002KT 9999 FEW020CB 06/04 Q1005
09:50
V
5 °C 10 km+ - 240° 240° 4 kt METAR EGPE 280950Z 24004KT 9999 FEW022CB 05/03 Q1005
09:20
V
3 °C 10 km+ - Var 000° 0 kt METAR EGPE 280920Z 00000KT 9999 FEW022CB 03/00 Q1004
08:50
V
3 °C 10 km+ - Var Var 1 kt METAR EGPE 280850Z VRB01KT 9999 FEW026 03/01 Q1004
08:20
V
3 °C 10 km+ - Var Var 2 kt METAR EGPE 280820Z VRB02KT 9999 FEW025 03/01 Q1004
07:50
V
4 °C 10 km+ - Var Var 2 kt METAR EGPE 280750Z VRB02KT 9999 FEW025 04/02 Q1004
07:20
V
4 °C 10 km+ - Var Var 1 kt METAR EGPE 280720Z VRB01KT 9999 NSC 04/01 Q1003
06:50
V
6 °C 10 km+ - 180° 180° 4 kt METAR EGPE 280650Z 18004KT 9999 NSC 06/03 Q1003
06:20
V
5 °C 10 km+ - 160° 160° 6 kt METAR EGPE 280620Z 16006KT 9999 NSC 05/03 Q1002
05:50
V
7 °C 10 km+ - Var Var 1 kt METAR EGPE 280550Z VRB01KT 9999 NSC 07/04 Q1002
05:20
V
7 °C 10 km+ - 160° 160° 3 kt METAR EGPE 280520Z AUTO 16003KT 9999 NCD 07/04 Q1002
04:50
V
7 °C 10 km+ - 110° 110° 4 kt METAR EGPE 280450Z AUTO 11004KT 070V160 9999 NCD 07/04 Q1001
04:20
V
7 °C 10 km+ 4,100 ft Var Var 1 kt METAR EGPE 280420Z AUTO VRB01KT 9999 SCT033/// BKN041/// BKN048/// 07/04 Q1001
03:50
V
7 °C 10 km+ - Var Var 2 kt METAR EGPE 280350Z AUTO VRB02KT 9999 NCD 07/04 Q1001
03:20
V
6 °C 10 km+ - Var Var 2 kt METAR EGPE 280320Z AUTO VRB02KT 9999 NCD 06/03 Q1000
02:50
V
6 °C 10 km+ - Var Var 2 kt METAR EGPE 280250Z AUTO VRB02KT 9999 NCD 06/03 Q1000
02:20
V
6 °C 10 km+ - Var 000° 0 kt METAR EGPE 280220Z AUTO 00000KT 9999 NCD 06/03 Q1000
01:50
V
8 °C 10 km+ - 190° 190° 9 kt METAR EGPE 280150Z AUTO 19009KT 9999 NCD 08/04 Q1000
01:20
V
6 °C 10 km+ - 150° 150° 3 kt METAR EGPE 280120Z AUTO 15003KT 100V230 9999 NCD 06/02 Q1000
00:50
V
6 °C 10 km+ - 160° 160° 8 kt METAR EGPE 280050Z AUTO 16008KT 9999 NCD 06/03 Q1000
00:20
V
6 °C 10 km+ - 180° 180° 4 kt METAR EGPE 280020Z AUTO 18004KT 140V220 9999 NCD 06/03 Q1000

November 27, 2022

Time Code Weather Temp. Visibility Ceiling Wind METAR/SPECI
23:50
V
9 °C 10 km+ - 160° 160° 6 kt METAR EGPE 272350Z AUTO 16006KT 100V190 9999 NCD 09/04 Q1000
23:20
V
8 °C 10 km+ - 190° 190° 12 kt METAR EGPE 272320Z AUTO 19012KT 9999 NCD 08/04 Q1000
22:50
V
7 °C 10 km+ - 290° 290° 3 kt METAR EGPE 272250Z AUTO 29003KT 210V330 9999 NCD 07/03 Q1000
22:20
V
8 °C 10 km+ - 170° 170° 10 kt METAR EGPE 272220Z AUTO 17010KT 130V200 9999 NCD 08/04 Q0999
21:50
V
8 °C 10 km+ - 120° 120° 4 kt METAR EGPE 272150Z 12004KT 090V170 CAVOK 08/04 Q1000
21:20
V
8 °C 10 km+ - 170° 170° 8 kt METAR EGPE 272120Z 17008KT 9999 FEW045 08/04 Q0999
20:50
V
8 °C 10 km+ - 160° 160° 8 kt METAR EGPE 272050Z 16008KT 9999 FEW045 08/05 Q0999
20:20
V
9 °C 10 km+ - 160° 160° 9 kt METAR EGPE 272020Z 16009KT 120V180 9999 NSC 09/05 Q0999
19:50
V
8 °C 10 km+ - 180° 180° 8 kt METAR EGPE 271950Z 18008KT 9999 FEW049 08/05 Q1000
19:20
V
8 °C 10 km+ - 170° 170° 10 kt METAR EGPE 271920Z 17010KT 9999 FEW045 08/05 Q1000
18:50
V
8 °C 10 km+ - 150° 150° 8 kt METAR EGPE 271850Z 15008KT 9999 FEW044 08/04 Q1000
18:20
V
8 °C 10 km+ - 170° 170° 8 kt METAR EGPE 271820Z 17008KT 9999 FEW044 08/04 Q1000
17:50
V
8 °C 10 km+ - Var Var 1 kt METAR EGPE 271750Z VRB01KT 9999 FEW025 SCT044 08/03 Q1000
17:20
V
8 °C 10 km+ - 140° 140° 5 kt METAR EGPE 271720Z 14005KT 9999 FEW025 SCT044 08/04 Q1000
16:50
V
9 °C 10 km+ - 110° 110° 8 kt METAR EGPE 271650Z 11008KT 9999 FEW030 09/04 Q1000
16:20
V
8 °C 10 km+ - 120° 120° 5 kt METAR EGPE 271620Z 12005KT 080V150 9999 FEW020 08/03 Q1000
15:50
V
8 °C 10 km+ - 170° 170° 4 kt METAR EGPE 271550Z 17004KT 150V210 9999 FEW021 08/03 Q1000
15:20
V
9 °C 10 km+ - 180° 180° 7 kt METAR EGPE 271520Z 18007KT 9999 FEW048 09/03 Q1000
14:50
V
9 °C 10 km+ - 200° 200° 11 kt METAR EGPE 271450Z 20011KT 9999 FEW048 09/03 Q1001
14:20
V
9 °C 10 km+ - 200° 200° 7 kt METAR EGPE 271420Z 20007KT 9999 FEW048 09/03 Q1001
13:50
V
11 °C 10 km+ - Var Var 1 kt METAR EGPE 271350Z VRB01KT 9999 FEW035 11/04 Q1001
13:20
V
10 °C 10 km+ - 060° 060° 1 kt METAR EGPE 271320Z 06001KT 9999 FEW035 10/05 Q1001
12:50
V
10 °C 10 km+ - 220° 220° 4 kt METAR EGPE 271250Z 22004KT 140V250 9999 FEW032 10/05 Q1002
12:20
V
10 °C 10 km+ - Var Var 1 kt METAR EGPE 271220Z VRB01KT 9999 FEW028 10/04 Q1002
11:50
V
10 °C 10 km+ - Var 000° 0 kt METAR EGPE 271150Z 00000KT 9999 FEW028 10/04 Q1002
11:20
V
10 °C 10 km+ - Var Var 2 kt METAR EGPE 271120Z VRB02KT 9999 FEW026 10/04 Q1002
10:50
V
9 °C 10 km+ - 240° 240° 7 kt METAR EGPE 271050Z 24007KT 9999 FEW022 09/04 Q1002
10:20
V
9 °C 10 km+ - 210° 210° 11 kt METAR EGPE 271020Z 21011KT 9999 FEW022CB 09/04 Q1001
09:50
V
8 °C 10 km+ - 210° 210° 13 - 23 kt METAR EGPE 270950Z 21013G23KT 9999 FEW022CB 08/03 Q1001

We and third parties follow your internet behavior on our website with cookies. If you continue, we assume you agree with our cookie policy.